RJCC CLOSE

TAF RJCC 011705Z 0118/0300 17006KT 7000 FEW003 BKN006
TEMPO 0118/0122 0700 -SHRA FG VV001
TEMPO 0122/0203 3000 -SHRA BR FEW001 BKN003
TEMPO 0209/0218 3000 BR FEW001 BKN003
TEMPO 0218/0300 1500 BR FEW001 BKN003